Time;durP1;ratioP1;P1;durP2;ratioP2;P2;SDS_P1;SDS_P2;PMS_P1;PMS_P2;Temp;Humidity;BMP_temperature;BMP_pressure;BME280_temperature;BME280_humidity;BME280_pressure;Samples;Min_cycle;Max_cycle;Signal;HPM_P1;HPM_P2
2022/11/13 00:00:19;;;;;;;775.83;733.43;;;5.50;99.90;;;;;;4954824;29;20456;-81
2022/11/13 00:02:47;;;;;;;761.17;720.30;;;5.40;99.90;;;;;;4954779;28;20460;-82
2022/11/13 00:05:14;;;;;;;725.27;686.67;;;5.50;99.90;;;;;;4955993;29;20985;-83
2022/11/13 00:07:41;;;;;;;778.30;733.40;;;5.50;99.90;;;;;;4955222;28;21021;-83
2022/11/13 00:10:08;;;;;;;772.07;727.27;;;5.40;99.90;;;;;;4953983;28;20539;-82
2022/11/13 00:12:35;;;;;;;804.63;755.97;;;5.50;99.90;;;;;;4954034;29;20455;-82
2022/11/13 00:15:02;;;;;;;794.77;747.10;;;5.50;99.90;;;;;;4954603;29;20459;-82
2022/11/13 00:17:29;;;;;;;788.40;741.80;;;5.50;99.90;;;;;;4954641;28;20490;-82
2022/11/13 00:19:57;;;;;;;782.20;737.20;;;5.60;99.90;;;;;;4955015;28;20986;-86
2022/11/13 00:22:24;;;;;;;777.13;732.50;;;5.40;99.90;;;;;;4954917;28;20456;-83
2022/11/13 00:24:50;;;;;;;767.93;724.67;;;5.40;99.90;;;;;;4955095;29;20456;-82
2022/11/13 00:27:17;;;;;;;769.40;727.97;;;5.30;99.90;;;;;;4955678;28;20455;-82
2022/11/13 00:29:44;;;;;;;770.10;727.80;;;5.30;99.90;;;;;;4955828;29;20456;-82
2022/11/13 00:32:11;;;;;;;769.70;727.00;;;5.30;99.90;;;;;;4954156;28;20471;-82
2022/11/13 00:34:38;;;;;;;773.20;729.40;;;5.30;99.90;;;;;;4955277;29;20471;-82
2022/11/13 00:37:06;;;;;;;779.83;734.07;;;5.20;99.90;;;;;;4954505;28;20476;-83
2022/11/13 00:39:32;;;;;;;783.40;737.10;;;5.30;99.90;;;;;;4955476;28;20831;-83
2022/11/13 00:41:59;;;;;;;778.47;732.07;;;5.20;99.90;;;;;;4954896;29;20456;-82
2022/11/13 00:44:26;;;;;;;804.40;755.10;;;5.20;99.90;;;;;;4955310;29;20459;-82
2022/11/13 00:46:52;;;;;;;793.00;744.70;;;5.20;99.90;;;;;;4954948;29;20451;-82
2022/11/13 00:49:19;;;;;;;813.47;761.97;;;5.20;99.90;;;;;;4955644;28;20503;-83
2022/11/13 00:51:46;;;;;;;840.33;783.50;;;5.30;99.90;;;;;;4958621;29;20463;-82
2022/11/13 00:54:14;;;;;;;833.63;775.23;;;5.60;99.90;;;;;;4959150;29;20464;-82
2022/11/13 00:56:41;;;;;;;818.17;760.80;;;5.80;99.90;;;;;;4958355;29;20451;-82
2022/11/13 00:59:07;;;;;;;811.80;753.93;;;5.70;99.90;;;;;;4958905;28;20481;-81
2022/11/13 01:01:34;;;;;;;814.03;755.20;;;5.90;99.90;;;;;;4958685;29;20447;-83
2022/11/13 01:04:01;;;;;;;806.23;750.03;;;6.10;99.90;;;;;;4958746;29;20451;-81
2022/11/13 01:06:28;;;;;;;799.73;745.77;;;6.20;99.90;;;;;;4958899;28;20451;-82
2022/11/13 01:08:56;;;;;;;772.10;722.00;;;6.40;99.90;;;;;;4958240;28;20471;-82
2022/11/13 01:11:26;;;;;;;756.47;708.77;;;6.30;99.90;;;;;;4957992;29;20835;-82
2022/11/13 01:13:53;;;;;;;741.60;697.07;;;6.40;99.90;;;;;;4958197;29;20836;-82
2022/11/13 01:16:22;;;;;;;724.83;683.10;;;6.40;99.90;;;;;;4958579;29;20452;-82
2022/11/13 01:18:50;;;;;;;704.47;665.30;;;6.40;99.90;;;;;;4958958;28;20480;-83
2022/11/13 01:21:19;;;;;;;690.00;653.17;;;6.50;99.90;;;;;;4958274;29;20459;-82
2022/11/13 01:23:46;;;;;;;705.63;668.73;;;6.50;99.90;;;;;;4958811;29;20482;-82
2022/11/13 01:26:15;;;;;;;662.97;629.67;;;6.50;99.90;;;;;;4958464;29;20455;-83
2022/11/13 01:28:45;;;;;;;669.50;635.67;;;6.60;99.90;;;;;;4959071;28;20472;-82
2022/11/13 01:31:14;;;;;;;647.67;616.60;;;6.60;99.90;;;;;;4957996;29;20977;-82
2022/11/13 01:33:41;;;;;;;642.87;612.30;;;6.50;99.90;;;;;;4958707;29;20818;-82
2022/11/13 01:36:12;;;;;;;652.30;621.37;;;6.50;99.90;;;;;;4958868;29;20452;-83
2022/11/13 01:38:39;;;;;;;649.60;619.50;;;6.40;99.90;;;;;;4959381;28;20491;-83
2022/11/13 01:41:07;;;;;;;668.70;636.03;;;6.50;99.90;;;;;;4958330;29;20455;-82
2022/11/13 01:43:35;;;;;;;727.83;688.87;;;6.40;99.90;;;;;;4958530;29;20463;-82
2022/11/13 01:46:11;;;;;;;758.93;716.67;;;6.50;99.90;;;;;;4959043;29;20452;-82
2022/11/13 01:48:41;;;;;;;728.27;687.63;;;6.60;99.90;;;;;;4959039;28;20479;-84
2022/11/13 01:51:12;;;;;;;660.60;625.87;;;6.80;99.90;;;;;;4959474;29;20838;-83
2022/11/13 01:53:42;;;;;;;567.50;540.30;;;7.00;99.90;;;;;;4959252;29;20460;-83
2022/11/13 01:56:09;;;;;;;502.17;480.50;;;7.00;99.90;;;;;;4959282;28;20474;-84
2022/11/13 01:58:37;;;;;;;414.17;397.20;;;7.10;99.90;;;;;;4959407;28;20494;-83
2022/11/13 02:01:03;;;;;;;341.13;327.73;;;7.20;99.90;;;;;;4957509;28;20460;-83
2022/11/13 02:03:32;;;;;;;300.40;288.87;;;7.20;99.90;;;;;;4959243;29;20467;-83
2022/11/13 02:05:58;;;;;;;266.43;256.63;;;7.20;99.90;;;;;;4958667;29;20452;-82
2022/11/13 02:08:25;;;;;;;252.90;243.50;;;7.30;99.90;;;;;;4958389;29;20475;-85
2022/11/13 02:10:52;;;;;;;235.87;227.47;;;7.30;99.90;;;;;;4957792;29;20467;-83
2022/11/13 02:13:20;;;;;;;260.00;249.87;;;7.20;99.90;;;;;;4958288;29;20466;-82
2022/11/13 02:15:48;;;;;;;245.93;237.23;;;7.20;99.90;;;;;;4957176;28;20456;-82
2022/11/13 02:18:16;;;;;;;245.03;236.13;;;7.20;99.90;;;;;;4958297;28;20509;-83
2022/11/13 02:20:50;;;;;;;241.17;232.37;;;7.30;99.90;;;;;;4958193;29;20462;-82
2022/11/13 02:23:26;;;;;;;236.27;227.57;;;7.30;99.90;;;;;;4958841;29;20475;-83
2022/11/13 02:25:54;;;;;;;230.70;222.30;;;7.30;99.90;;;;;;4958727;28;20511;-83
2022/11/13 02:28:21;;;;;;;213.80;206.00;;;7.30;99.90;;;;;;4958185;28;20476;-83
2022/11/13 02:30:48;;;;;;;206.47;199.07;;;7.40;99.90;;;;;;4958445;29;20452;-84
2022/11/13 02:33:22;;;;;;;212.47;204.87;;;7.50;99.90;;;;;;4958360;29;20463;-84
2022/11/13 02:35:49;;;;;;;178.50;171.80;;;7.50;99.90;;;;;;4958993;29;20459;-83
2022/11/13 02:38:16;;;;;;;148.83;143.23;;;7.50;99.90;;;;;;4958101;28;20486;-84
2022/11/13 02:40:43;;;;;;;121.23;116.20;;;7.60;99.90;;;;;;4958798;29;20456;-83
2022/11/13 02:43:11;;;;;;;105.03;100.93;;;7.50;99.90;;;;;;4958900;29;20470;-83
2022/11/13 02:45:38;;;;;;;103.53;99.23;;;7.50;99.90;;;;;;4959098;29;20455;-83
2022/11/13 02:48:05;;;;;;;96.20;92.20;;;7.40;99.90;;;;;;4957377;28;20893;-84
2022/11/13 02:50:33;;;;;;;113.53;108.90;;;7.40;99.90;;;;;;4958228;28;20463;-83
2022/11/13 02:53:00;;;;;;;118.47;113.73;;;7.30;99.90;;;;;;4957924;29;20459;-83
2022/11/13 02:55:27;;;;;;;128.10;122.67;;;7.40;99.90;;;;;;4958691;28;20460;-83
2022/11/13 02:57:53;;;;;;;153.80;147.80;;;7.30;99.90;;;;;;4958073;28;20491;-82
2022/11/13 03:00:22;;;;;;;172.77;166.37;;;7.20;99.90;;;;;;4957730;29;20835;-83
2022/11/13 03:02:48;;;;;;;187.00;180.10;;;7.20;99.90;;;;;;4957772;29;20456;-84
2022/11/13 03:05:15;;;;;;;214.80;206.90;;;7.10;99.90;;;;;;4958044;29;20467;-83
2022/11/13 03:07:42;;;;;;;230.80;222.57;;;7.10;99.90;;;;;;4957336;28;20989;-83
2022/11/13 03:10:10;;;;;;;266.50;257.20;;;6.90;99.90;;;;;;4957838;29;20455;-83
2022/11/13 03:12:39;;;;;;;292.93;282.53;;;6.90;99.90;;;;;;4957103;28;20456;-83
2022/11/13 03:15:07;;;;;;;327.63;315.87;;;6.80;99.90;;;;;;4957514;29;20464;-83
2022/11/13 03:17:35;;;;;;;394.23;380.03;;;6.70;99.90;;;;;;4957470;29;20899;-83
2022/11/13 03:20:03;;;;;;;476.43;457.60;;;6.60;99.90;;;;;;4957544;28;20459;-83
2022/11/13 03:22:29;;;;;;;477.23;457.73;;;6.80;99.90;;;;;;4957520;29;20456;-84
2022/11/13 03:24:57;;;;;;;441.77;424.17;;;6.90;99.90;;;;;;4958329;29;20451;-83
2022/11/13 03:27:23;;;;;;;420.53;404.13;;;6.80;99.90;;;;;;4958223;28;20507;-83
2022/11/13 03:29:50;;;;;;;408.87;392.97;;;6.80;99.90;;;;;;4957416;29;20467;-83
2022/11/13 03:32:17;;;;;;;408.03;392.53;;;6.70;99.90;;;;;;4957733;29;20460;-83
2022/11/13 03:34:45;;;;;;;397.50;382.40;;;6.70;99.90;;;;;;4958271;29;20514;-83
2022/11/13 03:37:12;;;;;;;437.33;420.87;;;6.50;99.90;;;;;;4958157;28;20982;-84
2022/11/13 03:39:38;;;;;;;488.07;469.13;;;6.40;99.90;;;;;;4958453;28;20981;-82
2022/11/13 03:42:05;;;;;;;530.40;508.80;;;6.40;99.90;;;;;;4957451;29;20452;-83
2022/11/13 03:44:32;;;;;;;577.63;553.00;;;6.30;99.90;;;;;;4957748;29;20525;-83
2022/11/13 03:46:59;;;;;;;604.40;577.90;;;6.20;99.90;;;;;;4957883;29;20452;-82
2022/11/13 03:49:28;;;;;;;660.03;628.27;;;6.10;99.90;;;;;;4959697;28;20472;-82
2022/11/13 03:51:56;;;;;;;696.17;660.17;;;6.00;99.90;;;;;;4959038;29;20459;-83
2022/11/13 03:54:23;;;;;;;707.40;670.17;;;6.00;99.90;;;;;;4956831;29;20459;-84
2022/11/13 03:56:50;;;;;;;713.43;674.27;;;5.90;99.90;;;;;;4956559;29;20460;-83
2022/11/13 03:59:16;;;;;;;717.87;677.07;;;6.00;99.90;;;;;;4957375;29;20566;-84
2022/11/13 04:01:43;;;;;;;735.63;692.90;;;6.00;99.90;;;;;;4957249;29;20452;-84
2022/11/13 04:04:10;;;;;;;746.77;702.80;;;5.90;99.90;;;;;;4955523;29;20835;-84
2022/11/13 04:06:37;;;;;;;733.67;690.30;;;6.00;99.90;;;;;;4957715;29;20835;-83
2022/11/13 04:09:05;;;;;;;723.17;681.87;;;5.90;99.90;;;;;;4956980;29;20471;-84
2022/11/13 04:11:32;;;;;;;720.47;680.17;;;5.90;99.90;;;;;;4957114;28;20468;-84
2022/11/13 04:13:59;;;;;;;699.47;662.93;;;5.80;99.90;;;;;;4957622;29;20455;-83
2022/11/13 04:16:26;;;;;;;698.07;662.67;;;5.60;99.90;;;;;;4957038;29;20455;-82
2022/11/13 04:18:53;;;;;;;707.93;671.27;;;5.60;99.90;;;;;;4956449;29;21036;-84
2022/11/13 04:21:19;;;;;;;735.90;696.07;;;5.40;99.90;;;;;;4956665;28;20455;-84
2022/11/13 04:23:46;;;;;;;756.63;714.37;;;5.30;99.90;;;;;;4957266;28;20464;-82
2022/11/13 04:26:14;;;;;;;791.57;744.80;;;5.20;99.90;;;;;;4961013;29;20455;-82
2022/11/13 04:28:41;;;;;;;791.67;744.40;;;5.20;99.90;;;;;;4960631;29;20491;-83
2022/11/13 04:31:08;;;;;;;796.77;748.57;;;5.10;99.90;;;;;;4960227;29;20816;-82
2022/11/13 04:33:37;;;;;;;803.93;753.63;;;5.00;99.90;;;;;;4959696;29;20958;-83
2022/11/13 04:36:04;;;;;;;796.03;746.53;;;5.10;99.90;;;;;;4960189;29;20863;-83
2022/11/13 04:38:31;;;;;;;815.40;763.10;;;4.90;99.90;;;;;;4955906;28;20468;-83
2022/11/13 04:43:40;;;;;;;817.17;762.87;;;5.00;99.90;;;;;;4942432;29;20531;-83
2022/11/13 04:46:06;;;;;;;822.50;766.07;;;5.00;99.90;;;;;;4956695;28;20452;-84
2022/11/13 04:48:33;;;;;;;816.17;760.07;;;5.00;99.90;;;;;;4959839;29;21027;-82
2022/11/13 04:51:00;;;;;;;831.23;774.80;;;5.10;99.90;;;;;;4947770;29;20461;-82
2022/11/13 04:53:27;;;;;;;812.07;754.70;;;5.00;99.90;;;;;;4940309;29;20543;-83
2022/11/13 04:55:55;;;;;;;813.57;758.07;;;4.90;99.90;;;;;;4940266;29;20443;-83
2022/11/13 04:58:21;;;;;;;813.63;759.13;;;4.90;99.90;;;;;;4940142;29;20521;-83
2022/11/13 05:00:49;;;;;;;818.67;762.53;;;4.80;99.90;;;;;;4939951;29;20468;-82
2022/11/13 05:03:16;;;;;;;823.97;768.07;;;4.70;99.90;;;;;;4951976;29;20456;-82
2022/11/13 05:05:43;;;;;;;821.20;766.03;;;4.70;99.90;;;;;;4958992;29;20456;-82
2022/11/13 05:08:11;;;;;;;819.03;764.20;;;4.60;99.90;;;;;;4958410;29;20491;-82
2022/11/13 05:10:38;;;;;;;829.00;769.20;;;4.50;99.90;;;;;;4959080;29;20950;-82
2022/11/13 05:13:05;;;;;;;821.27;761.87;;;4.70;99.90;;;;;;4959021;29;20462;-81
2022/11/13 05:15:31;;;;;;;813.33;753.53;;;4.60;99.90;;;;;;4958584;29;20455;-83
2022/11/13 05:17:59;;;;;;;810.60;753.13;;;4.50;99.90;;;;;;4957775;29;20479;-82
2022/11/13 05:20:26;;;;;;;820.07;761.00;;;4.40;99.90;;;;;;4957872;29;20521;-83
2022/11/13 05:22:53;;;;;;;817.43;759.17;;;4.40;99.90;;;;;;4955355;29;20463;-82
2022/11/13 05:25:20;;;;;;;811.87;752.40;;;4.50;99.90;;;;;;4939680;29;20484;-82
2022/11/13 05:27:46;;;;;;;802.97;744.00;;;4.50;99.90;;;;;;4947770;29;20479;-82
2022/11/13 05:30:13;;;;;;;794.10;734.20;;;4.50;99.90;;;;;;4957962;29;20452;-83
2022/11/13 05:32:40;;;;;;;788.97;729.10;;;4.50;99.90;;;;;;4958057;29;20470;-82
2022/11/13 05:35:09;;;;;;;785.90;727.03;;;4.50;99.90;;;;;;4958013;28;20842;-82
2022/11/13 05:37:36;;;;;;;793.83;734.37;;;4.50;99.90;;;;;;4957865;28;20476;-83
2022/11/13 05:40:02;;;;;;;783.47;724.30;;;4.50;99.90;;;;;;4958858;29;20448;-82
2022/11/13 05:42:29;;;;;;;795.80;736.97;;;4.50;99.90;;;;;;4957925;29;20463;-82
2022/11/13 05:44:56;;;;;;;788.17;729.67;;;4.50;99.90;;;;;;4957817;29;20459;-82
2022/11/13 05:47:23;;;;;;;789.60;731.70;;;4.50;99.90;;;;;;4956738;28;20478;-82
2022/11/13 05:49:49;;;;;;;802.93;745.03;;;4.30;99.90;;;;;;4957567;29;21002;-82
2022/11/13 05:52:17;;;;;;;800.03;741.43;;;4.30;99.90;;;;;;4957200;28;20456;-83
2022/11/13 05:54:44;;;;;;;798.57;740.40;;;4.30;99.90;;;;;;4957409;29;20456;-82
2022/11/13 05:57:11;;;;;;;802.80;745.00;;;4.30;99.90;;;;;;4957104;28;20460;-83
2022/11/13 05:59:37;;;;;;;808.40;749.90;;;4.20;99.90;;;;;;4957639;29;20455;-82
2022/11/13 06:02:04;;;;;;;808.40;750.90;;;4.20;99.90;;;;;;4957131;29;20799;-81
2022/11/13 06:04:31;;;;;;;799.90;746.70;;;4.10;99.90;;;;;;4957358;29;20452;-83
2022/11/13 06:06:58;;;;;;;784.37;734.57;;;3.90;99.90;;;;;;4956448;29;20459;-82
2022/11/13 06:09:26;;;;;;;768.30;719.57;;;3.80;99.90;;;;;;4955125;28;21009;-82
2022/11/13 06:11:52;;;;;;;785.40;735.33;;;3.70;99.90;;;;;;4956302;29;20463;-81
2022/11/13 06:14:19;;;;;;;792.57;740.10;;;3.50;99.90;;;;;;4955879;28;20452;-81
2022/11/13 06:16:46;;;;;;;801.73;745.87;;;3.50;99.90;;;;;;4955994;29;20455;-82
2022/11/13 06:19:13;;;;;;;794.77;736.00;;;3.60;99.90;;;;;;4956194;28;20467;-82
2022/11/13 06:21:40;;;;;;;793.13;731.47;;;3.70;99.90;;;;;;4955999;29;20833;-81
2022/11/13 06:24:10;;;;;;;838.87;778.00;;;3.80;99.90;;;;;;4955729;29;20453;-81
2022/11/13 06:26:38;;;;;;;827.07;768.40;;;3.80;99.90;;;;;;4955904;29;20460;-82
2022/11/13 06:29:08;;;;;;;835.63;776.33;;;3.60;99.90;;;;;;4955485;28;20488;-81
2022/11/13 06:31:36;;;;;;;833.10;773.50;;;3.60;99.90;;;;;;4954734;29;20452;-82
2022/11/13 06:34:04;;;;;;;849.77;789.93;;;3.60;99.90;;;;;;4956197;29;20466;-82
2022/11/13 06:36:32;;;;;;;848.53;788.10;;;3.60;99.90;;;;;;4956605;29;20452;-80
2022/11/13 06:39:00;;;;;;;838.17;777.23;;;3.50;99.90;;;;;;4956033;29;20468;-82
2022/11/13 06:41:28;;;;;;;837.40;775.60;;;3.60;99.90;;;;;;4956676;29;20456;-82
2022/11/13 06:43:57;;;;;;;846.50;783.70;;;3.60;99.90;;;;;;4957124;28;20462;-81
2022/11/13 06:46:41;;;;;;;841.77;780.30;;;3.60;99.90;;;;;;4955189;29;20459;-81
2022/11/13 06:49:08;;;;;;;850.47;789.27;;;3.50;99.90;;;;;;4953558;28;20472;-81
2022/11/13 06:51:35;;;;;;;844.80;784.13;;;3.40;99.90;;;;;;4952688;29;20811;-81
2022/11/13 06:54:01;;;;;;;836.63;776.67;;;3.40;99.90;;;;;;4951160;29;20840;-82
2022/11/13 06:56:28;;;;;;;843.43;782.37;;;3.30;99.90;;;;;;4953977;29;20466;-80
2022/11/13 06:58:57;;;;;;;833.83;772.67;;;3.30;99.90;;;;;;4938071;29;20481;-81
2022/11/13 07:01:26;;;;;;;824.47;761.60;;;3.30;99.90;;;;;;4955398;29;20459;-80
2022/11/13 07:03:53;;;;;;;825.13;761.40;;;3.50;99.90;;;;;;4954905;29;20483;-82
2022/11/13 07:06:22;;;;;;;829.93;764.07;;;3.40;99.90;;;;;;4955206;28;20452;-83
2022/11/13 07:08:49;;;;;;;827.90;760.70;;;3.50;99.90;;;;;;4955352;28;20483;-83
2022/11/13 07:11:17;;;;;;;816.53;749.23;;;3.70;99.90;;;;;;4955470;29;20459;-82
2022/11/13 07:13:45;;;;;;;811.73;743.67;;;3.80;99.90;;;;;;4953470;29;20572;-82
2022/11/13 07:16:14;;;;;;;813.07;745.20;;;3.90;99.90;;;;;;4940522;29;20467;-83
2022/11/13 07:18:41;;;;;;;814.33;747.20;;;4.00;99.90;;;;;;4956032;28;20472;-83
2022/11/13 07:21:10;;;;;;;822.57;755.50;;;4.20;99.90;;;;;;4956033;29;20456;-82
2022/11/13 07:23:41;;;;;;;823.00;756.63;;;4.30;99.90;;;;;;4955940;29;20459;-83
2022/11/13 07:26:09;;;;;;;806.03;740.97;;;4.30;99.90;;;;;;4956557;28;20845;-83
2022/11/13 07:28:35;;;;;;;802.50;739.83;;;4.40;99.90;;;;;;4955765;29;20482;-84
2022/11/13 07:31:02;;;;;;;787.00;727.00;;;4.50;99.90;;;;;;4955555;29;20459;-83
2022/11/13 07:33:31;;;;;;;794.47;736.27;;;4.50;99.90;;;;;;4955923;28;20467;-83
2022/11/13 07:35:58;;;;;;;800.63;743.33;;;4.50;99.90;;;;;;4957214;29;20455;-84
2022/11/13 07:38:25;;;;;;;791.93;735.93;;;4.60;99.90;;;;;;4956591;29;20479;-84
2022/11/13 07:40:51;;;;;;;789.77;734.20;;;4.60;99.90;;;;;;4957511;29;20467;-84
2022/11/13 07:43:18;;;;;;;800.73;745.27;;;4.70;99.90;;;;;;4958733;29;20460;-85
2022/11/13 07:45:45;;;;;;;794.30;738.83;;;4.80;99.90;;;;;;4957849;29;20456;-85
2022/11/13 07:48:12;;;;;;;781.07;726.70;;;4.90;99.90;;;;;;4958419;29;20475;-83
2022/11/13 07:50:40;;;;;;;778.23;725.07;;;5.10;99.90;;;;;;4957603;29;20482;-86
2022/11/13 07:53:08;;;;;;;763.23;712.33;;;5.10;99.90;;;;;;4958791;29;20467;-82
2022/11/13 07:55:36;;;;;;;768.43;718.37;;;5.30;99.90;;;;;;4959048;29;20463;-84
2022/11/13 07:58:04;;;;;;;757.87;708.60;;;5.30;99.90;;;;;;4958304;28;20482;-83
2022/11/13 08:00:33;;;;;;;746.43;698.90;;;5.40;99.90;;;;;;4959806;29;20982;-85
2022/11/13 08:03:05;;;;;;;734.50;690.40;;;5.60;99.90;;;;;;4961838;29;20955;-84
2022/11/13 08:05:32;;;;;;;669.23;631.70;;;5.70;99.90;;;;;;4961213;29;20997;-84
2022/11/13 08:08:11;;;;;;;605.20;575.73;;;5.80;99.90;;;;;;4961288;28;20483;-83
2022/11/13 08:13:34;;;;;;;468.40;449.10;;;6.10;99.90;;;;;;4957707;28;20464;-84
2022/11/13 08:16:02;;;;;;;416.50;399.90;;;6.20;99.90;;;;;;4961632;29;20985;-84
2022/11/13 08:18:46;;;;;;;371.27;357.13;;;6.30;99.90;;;;;;4961962;28;20475;-84
2022/11/13 08:21:13;;;;;;;338.63;325.97;;;6.40;99.90;;;;;;4961742;29;20460;-85
2022/11/13 08:23:55;;;;;;;355.50;342.00;;;6.40;99.90;;;;;;4963076;28;20462;-85
2022/11/13 08:26:28;;;;;;;339.40;327.13;;;6.50;99.90;;;;;;4961010;29;20456;-84
2022/11/13 08:28:55;;;;;;;317.03;305.83;;;6.50;99.90;;;;;;4962469;28;20869;-86
2022/11/13 08:31:21;;;;;;;323.73;308.97;;;6.60;99.90;;;;;;4961544;29;20482;-85
2022/11/13 08:33:48;;;;;;;312.97;302.33;;;6.70;99.90;;;;;;4961985;28;20540;-85
2022/11/13 08:36:15;;;;;;;278.83;269.33;;;6.80;99.90;;;;;;4962033;29;20477;-86
2022/11/13 08:38:42;;;;;;;214.20;206.87;;;7.00;99.90;;;;;;4963531;29;21012;-85
2022/11/13 08:41:10;;;;;;;162.00;155.50;;;7.00;99.90;;;;;;4962059;28;20455;-85
2022/11/13 08:43:37;;;;;;;92.37;88.67;;;7.20;99.90;;;;;;4962676;29;20452;-84
2022/11/13 08:46:04;;;;;;;57.27;54.70;;;7.30;99.90;;;;;;4958802;28;20456;-85
2022/11/13 08:48:31;;;;;;;55.93;52.93;;;7.50;99.90;;;;;;4961620;28;20483;-85
2022/11/13 08:54:03;;;;;;;37.10;35.10;;;7.60;99.90;;;;;;4952836;29;20451;-84
2022/11/13 08:57:02;;;;;;;17.97;16.70;;;7.70;99.90;;;;;;4962185;28;20988;-85
2022/11/13 08:59:30;;;;;;;12.17;11.10;;;7.90;99.90;;;;;;4956306;28;20483;-85
2022/11/13 09:02:13;;;;;;;9.50;8.53;;;8.00;99.90;;;;;;4962228;29;20471;-85
2022/11/13 09:04:40;;;;;;;9.97;8.80;;;8.00;99.90;;;;;;4884450;29;20463;-85
2022/11/13 09:07:07;;;;;;;8.03;6.73;;;8.30;99.90;;;;;;4883279;29;20486;-85
2022/11/13 09:10:18;;;;;;;8.83;5.70;;;8.20;99.90;;;;;;4922639;28;20475;-85
2022/11/13 09:13:08;;;;;;;7.63;4.63;;;8.50;99.90;;;;;;4936386;28;20989;-86
2022/11/13 09:15:38;;;;;;;10.13;5.53;;;8.60;99.90;;;;;;4962342;29;20538;-84
2022/11/13 09:18:06;;;;;;;6.80;4.40;;;8.60;99.90;;;;;;4962766;28;20493;-85
2022/11/13 09:21:24;;;;;;;7.93;4.57;;;8.80;99.90;;;;;;4962068;28;20463;-85
2022/11/13 09:24:15;;;;;;;8.10;4.83;;;8.90;98.70;;;;;;4959149;28;20475;-85
2022/11/13 09:26:48;;;;;;;8.10;5.13;;;9.00;97.60;;;;;;4962922;29;20483;-86
2022/11/13 09:34:43;;;;;;;25.03;14.00;;;9.30;96.00;;;;;;4962330;28;20472;-86
2022/11/13 09:37:10;;;;;;;10.57;4.30;;;9.40;95.00;;;;;;4962850;29;20452;-86
2022/11/13 09:39:37;;;;;;;8.03;4.20;;;9.60;94.60;;;;;;4962296;29;20454;-85
2022/11/13 09:42:12;;;;;;;10.23;5.27;;;9.60;94.90;;;;;;4962775;29;20456;-86
2022/11/13 09:44:43;;;;;;;6.53;3.97;;;9.80;93.90;;;;;;4961740;29;20458;-85
2022/11/13 09:47:18;;;;;;;7.87;3.90;;;9.80;93.20;;;;;;4962907;28;20483;-85
2022/11/13 09:49:53;;;;;;;7.20;4.17;;;9.90;93.30;;;;;;4963295;29;21013;-84
2022/11/13 09:52:27;;;;;;;6.10;4.27;;;10.10;93.10;;;;;;4961849;28;20508;-86
2022/11/13 09:54:54;;;;;;;6.40;3.67;;;10.10;92.90;;;;;;4962491;28;20466;-86
2022/11/13 09:57:31;;;;;;;6.40;4.10;;;10.20;93.00;;;;;;4963160;28;20452;-86
2022/11/13 10:00:03;;;;;;;6.27;3.80;;;10.50;92.10;;;;;;4963782;29;20462;-86
2022/11/13 10:02:42;;;;;;;16.07;7.77;;;10.60;91.20;;;;;;4963119;28;20452;-87
2022/11/13 10:08:11;;;;;;;6.07;3.63;;;11.60;90.70;;;;;;4936495;29;20863;-84
2022/11/13 10:11:16;;;;;;;7.20;3.90;;;12.00;85.10;;;;;;4955140;29;20475;-84
2022/11/13 10:13:46;;;;;;;8.87;4.30;;;12.00;84.30;;;;;;4951846;29;20986;-85
2022/11/13 10:16:45;;;;;;;6.37;3.63;;;12.00;85.00;;;;;;4963737;28;20487;-85
2022/11/13 10:19:22;;;;;;;6.90;3.50;;;12.50;84.80;;;;;;4932533;29;20501;-85
2022/11/13 10:21:54;;;;;;;4.67;2.33;;;13.40;83.00;;;;;;4945756;29;20503;-85
2022/11/13 10:24:44;;;;;;;6.20;3.30;;;14.20;75.70;;;;;;4964753;29;20475;-85
2022/11/13 10:27:15;;;;;;;7.07;3.03;;;14.80;70.40;;;;;;4922643;29;20849;-85
2022/11/13 10:33:25;;;;;;;6.20;2.97;;;16.30;66.70;;;;;;4829978;29;21002;-85
2022/11/13 10:35:58;;;;;;;5.37;2.60;;;16.50;60.10;;;;;;4835939;29;20533;-85
2022/11/13 10:38:54;;;;;;;7.43;2.30;;;16.80;56.70;;;;;;4956594;28;20484;-85
2022/11/13 10:42:11;;;;;;;5.17;2.23;;;16.80;55.70;;;;;;4960388;28;20487;-85
2022/11/13 10:45:24;;;;;;;6.60;2.70;;;16.30;54.60;;;;;;4953531;28;20486;-85
2022/11/13 10:48:02;;;;;;;5.40;2.33;;;15.50;53.00;;;;;;4903871;28;20483;-85
2022/11/13 10:53:59;;;;;;;5.00;1.97;;;14.50;54.30;;;;;;4961475;29;20470;-84
2022/11/13 10:56:29;;;;;;;6.37;2.67;;;14.00;54.20;;;;;;4962105;28;20457;-85
2022/11/13 11:02:28;;;;;;;6.23;2.23;;;13.80;54.50;;;;;;4960971;28;20515;-85
2022/11/13 11:05:02;;;;;;;5.90;2.30;;;13.70;56.00;;;;;;4961294;29;20448;-85
2022/11/13 11:07:29;;;;;;;5.23;1.90;;;13.70;58.20;;;;;;4959264;28;20549;-85
2022/11/13 11:10:01;;;;;;;7.03;2.50;;;13.60;55.90;;;;;;4961071;29;20821;-85
2022/11/13 11:16:24;;;;;;;6.40;1.83;;;13.70;56.00;;;;;;4960156;28;20456;-85
2022/11/13 11:18:57;;;;;;;8.23;1.87;;;14.30;53.60;;;;;;5238365;23;20516;-86
2022/11/13 11:21:29;;;;;;;11.07;1.93;;;15.50;49.00;;;;;;4981272;28;20569;-85
2022/11/13 11:24:00;;;;;;;5.00;2.13;;;16.40;46.10;;;;;;4983302;28;21021;-85
2022/11/13 11:26:56;;;;;;;5.53;2.20;;;17.40;43.00;;;;;;4981038;28;20486;-85
2022/11/13 11:29:30;;;;;;;5.17;2.10;;;18.10;36.70;;;;;;4978709;28;21061;-85
2022/11/13 11:32:01;;;;;;;4.83;1.80;;;18.90;34.30;;;;;;4981166;28;20488;-85
2022/11/13 11:34:33;;;;;;;7.50;2.33;;;19.80;32.60;;;;;;4980774;28;21037;-84
2022/11/13 11:37:06;;;;;;;6.90;1.90;;;20.00;27.00;;;;;;4968105;28;20529;-85
2022/11/13 11:39:38;;;;;;;5.00;2.10;;;20.70;26.10;;;;;;4980281;28;20469;-84
2022/11/13 11:42:19;;;;;;;5.20;1.90;;;20.90;21.10;;;;;;4979375;28;20486;-85
2022/11/13 11:44:58;;;;;;;7.43;2.53;;;21.20;20.50;;;;;;4979930;28;20461;-85
2022/11/13 11:47:24;;;;;;;4.47;1.60;;;21.30;17.40;;;;;;4980279;28;20475;-85
2022/11/13 11:49:51;;;;;;;5.40;1.80;;;21.60;18.60;;;;;;4979747;28;20945;-85
2022/11/13 11:52:37;;;;;;;5.10;1.87;;;21.60;15.50;;;;;;4980533;28;20459;-85
2022/11/13 11:55:52;;;;;;;4.70;1.70;;;21.90;13.60;;;;;;4980677;28;20454;-85
2022/11/13 11:58:35;;;;;;;5.47;1.80;;;22.40;12.00;;;;;;4914047;29;20524;-85
2022/11/13 12:01:05;;;;;;;5.20;1.87;;;22.10;10.80;;;;;;4980326;28;20486;-85
2022/11/13 12:03:58;;;;;;;4.77;1.70;;;21.90;8.20;;;;;;4981255;28;20842;-85
2022/11/13 12:06:38;;;;;;;5.30;1.93;;;21.90;9.50;;;;;;4980862;28;20534;-85
2022/11/13 12:09:15;;;;;;;5.00;1.83;;;22.20;8.20;;;;;;4981000;28;20478;-85
2022/11/13 12:11:48;;;;;;;4.63;1.60;;;22.20;5.30;;;;;;4980414;28;20486;-85
2022/11/13 12:14:27;;;;;;;5.57;1.37;;;22.20;5.60;;;;;;4980889;28;20463;-86
2022/11/13 12:17:26;;;;;;;4.40;1.60;;;22.30;2.60;;;;;;4981086;28;20458;-86
2022/11/13 12:20:02;;;;;;;6.10;1.60;;;22.10;3.40;;;;;;4981001;28;20815;-86
2022/11/13 12:22:38;;;;;;;5.57;1.77;;;22.00;1.00;;;;;;4981307;28;20454;-85
2022/11/13 12:25:17;;;;;;;4.50;1.70;;;22.20;1.70;;;;;;4980563;28;20482;-85
2022/11/13 12:27:49;;;;;;;4.70;1.67;;;22.10;1.30;;;;;;4981291;28;20528;-84
2022/11/13 12:30:22;;;;;;;4.70;1.73;;;22.30;1.00;;;;;;4981521;28;20474;-85
2022/11/13 12:33:06;;;;;;;4.23;1.37;;;22.30;1.10;;;;;;4981992;28;20669;-86
2022/11/13 12:35:33;;;;;;;4.50;1.60;;;22.40;1.00;;;;;;4981770;28;20903;-85
2022/11/13 12:38:08;;;;;;;4.60;1.53;;;22.60;1.00;;;;;;4982050;28;20569;-85
2022/11/13 12:40:42;;;;;;;4.67;2.00;;;22.40;1.00;;;;;;4981995;28;20474;-85
2022/11/13 12:43:27;;;;;;;5.30;1.87;;;22.50;1.00;;;;;;4981706;28;20485;-85
2022/11/13 12:46:03;;;;;;;4.70;1.80;;;22.90;1.00;;;;;;4982722;28;20454;-85
2022/11/13 12:48:34;;;;;;;5.13;2.30;;;22.50;1.00;;;;;;4985082;28;20473;-86
2022/11/13 12:51:04;;;;;;;5.43;2.27;;;22.80;1.00;;;;;;4984593;28;20488;-85
2022/11/13 12:53:44;;;;;;;4.77;1.87;;;22.80;1.00;;;;;;4984827;28;20461;-85
2022/11/13 12:56:17;;;;;;;5.23;2.10;;;22.60;1.00;;;;;;4985051;28;20965;-85
2022/11/13 12:58:54;;;;;;;5.53;2.00;;;22.70;1.00;;;;;;4983738;28;20474;-85
2022/11/13 13:01:23;;;;;;;8.30;1.70;;;22.40;1.00;;;;;;4984108;28;20461;-85
2022/11/13 13:04:21;;;;;;;5.00;1.80;;;22.30;1.00;;;;;;4983731;28;20534;-85
2022/11/13 13:07:00;;;;;;;6.37;2.07;;;21.30;2.30;;;;;;4980961;28;20522;-85
2022/11/13 13:09:46;;;;;;;5.50;2.20;;;20.40;4.80;;;;;;4983138;28;20485;-85
2022/11/13 13:12:20;;;;;;;5.43;1.70;;;19.40;7.40;;;;;;4982901;28;21024;-85
2022/11/13 13:15:08;;;;;;;5.90;2.27;;;18.60;11.20;;;;;;4982480;28;20533;-85
2022/11/13 13:17:37;;;;;;;7.20;2.47;;;17.80;15.90;;;;;;4982888;28;20847;-85